Share

New Matamoras, OH

11:31 PM EDT on April 23, 2014 (GMT -0400)
Raven Rock (KWVSTMAR2) Elev 627 ft | 39.45 °N, 81.12 °W | Change Station

Current weather conditions updated 32 seconds ago

Clear
Clear
40.4 °F
Feels Like 40 °F
N
0.0
Wind Variable Wind from NNE
Sunrise 6:35 AM
Sunset 8:10 PM
Moon Waning Crescent

Tomorrow is forecast to be Warmer than today.

Pressure 30.14 in
Visibility 10.0 miles
Clouds Clear
Windchill 40 °F
Dew Point 31 °F
Humidity 68%
Rainfall 0.00 in
Snow Depth Not available.
UV 0 out of 16
Pollen 10.80 out of 12
Air Quality Not available.
Flu Activity Local Activity
METAR KPKB 240253Z 02009KT 10SM CLR 08/M01 A3013 RMK AO2 SLP206 T00831006 51023

More Conditions Fewer Conditions

Pressure 30.14 in
Visibility 10.0 miles
Clouds Clear
Windchill 40 °F
Dew Point 31 °F
Humidity 68%
Rainfall 0.00 in
Snow Depth Not available.
UV 0 out of 16
Pollen 10.80 out of 12
Air Quality Not available.
Flu Activity Local Activity
METAR KPKB 240253Z 02009KT 10SM CLR 08/M01 A3013 RMK AO2 SLP206 T00831006 51023

More Conditions Fewer Conditions

10-Day Weather Forecast

Almanac

Astronomy

Apr. 23, 2014 Rise Set
Actual Time 6:35 AM EDT 8:10 PM EDT
Civil Twilight 6:07 AM EDT 8:39 PM EDT
Nautical Twilight 5:33 AM EDT 9:13 PM EDT
Astronomical Twilight 4:56 AM EDT 9:50 PM EDT
Moon 3:05 AM EDT (4/23) 2:18 PM EDT (4/23)
Length of Visible Light 14h 31m
Length of Day
13h 34m
Tomorrow will be 2m 22s longer.
Waning Crescent, 30% of the Moon is Illuminated
Today
Waning Crescent
Apr 29
New
May 6
First Quarter
May 14
Full
May 21
Last Quarter

Today's Extremes

State Highs State Lows

Community

  • Balance
    Balance
  • Nestled In
    Nestled In
  • Stunning Sunrise
    Stunning Sunrise
  • spring flowers
    spring flowers
  • Earth Day Spectrum Ove' Blue
    Earth Day Spectrum Ove' Blue

WunderPhotos

Upload Photos

1,704,540 photos uploaded!

WunderBlogs® & News

Nearby

Snow Depth

Station Depth Elevation
No new snow has been reported.

Coastal Water Temperatures

Place Temperature
No Stations Reporting

Earthquake Activity

City Distance Mag. Time & Date
No recent earthquake activity has been reported nearby.
Minimum magnitude displayed is 2.5.

Nearby Weather Stations

Station Location Temp. Windchill Dew Point Humidity Wind Precip. Elev Updated Type
Raven Rock, St. Marys, WV 40.4 °F 40 °F 31 °F 68% NNE  at  0.0 mph 0.00 in / hr 627 ft 11:31 PM EDT Normal
Kidwell, WV, Sistersville, WV 36.7 °F 37 °F 35 °F 92% NNW  at  0.0 mph - / hr 738 ft 11:16 PM EDT Normal
RAWS CONAWAY LAKE WV, Alma, WV 44 °F 42 °F 29 °F 56% NNW  at  4 mph 0.00 in / hr 1189 ft 10:16 PM EDT MADIS

Show More Stations Show Fewer Stations

What do you think?

We're not finished. Please let us know what you like, what you don't like, and what you are still missing.